sensor_id;sensor_type;location;lat;lon;timestamp;P1;durP1;ratioP1;P2;durP2;ratioP2
75691;SDS011;64307;52.508;6.090;2023-07-13T00:01:50;7.05;;;0.85;;
75691;SDS011;64307;52.508;6.090;2023-07-13T00:04:17;8.52;;;1.02;;
75691;SDS011;64307;52.508;6.090;2023-07-13T00:06:43;5.20;;;1.08;;
75691;SDS011;64307;52.508;6.090;2023-07-13T00:09:10;9.73;;;1.20;;
75691;SDS011;64307;52.508;6.090;2023-07-13T00:11:39;4.95;;;0.85;;
75691;SDS011;64307;52.508;6.090;2023-07-13T00:14:05;6.65;;;1.40;;
75691;SDS011;64307;52.508;6.090;2023-07-13T00:16:32;7.00;;;1.10;;
75691;SDS011;64307;52.508;6.090;2023-07-13T00:18:59;8.43;;;1.23;;
75691;SDS011;64307;52.508;6.090;2023-07-13T00:21:25;10.55;;;1.20;;
75691;SDS011;64307;52.508;6.090;2023-07-13T00:23:51;9.13;;;1.00;;
75691;SDS011;64307;52.508;6.090;2023-07-13T00:26:16;7.27;;;1.13;;
75691;SDS011;64307;52.508;6.090;2023-07-13T00:28:42;7.22;;;1.33;;
75691;SDS011;64307;52.508;6.090;2023-07-13T00:31:08;9.15;;;1.10;;
75691;SDS011;64307;52.508;6.090;2023-07-13T00:33:35;12.85;;;1.20;;
75691;SDS011;64307;52.508;6.090;2023-07-13T00:36:00;9.18;;;1.25;;
75691;SDS011;64307;52.508;6.090;2023-07-13T00:38:26;10.15;;;1.20;;
75691;SDS011;64307;52.508;6.090;2023-07-13T00:40:51;6.47;;;1.00;;
75691;SDS011;64307;52.508;6.090;2023-07-13T00:43:18;10.02;;;1.05;;
75691;SDS011;64307;52.508;6.090;2023-07-13T00:48:12;8.50;;;1.65;;
75691;SDS011;64307;52.508;6.090;2023-07-13T00:50:41;8.02;;;1.33;;
75691;SDS011;64307;52.508;6.090;2023-07-13T00:53:09;8.10;;;1.70;;
75691;SDS011;64307;52.508;6.090;2023-07-13T00:55:36;10.95;;;1.10;;
75691;SDS011;64307;52.508;6.090;2023-07-13T00:58:03;9.07;;;1.33;;
75691;SDS011;64307;52.508;6.090;2023-07-13T01:00:31;8.77;;;0.77;;
75691;SDS011;64307;52.508;6.090;2023-07-13T01:02:59;7.32;;;1.40;;
75691;SDS011;64307;52.508;6.090;2023-07-13T01:05:26;7.25;;;0.95;;
75691;SDS011;64307;52.508;6.090;2023-07-13T01:07:51;6.85;;;1.20;;
75691;SDS011;64307;52.508;6.090;2023-07-13T01:10:18;10.05;;;1.45;;
75691;SDS011;64307;52.508;6.090;2023-07-13T01:12:47;12.15;;;1.58;;
75691;SDS011;64307;52.508;6.090;2023-07-13T01:18:08;7.95;;;1.35;;
75691;SDS011;64307;52.508;6.090;2023-07-13T01:20:36;8.95;;;1.13;;
75691;SDS011;64307;52.508;6.090;2023-07-13T01:23:05;10.75;;;1.58;;
75691;SDS011;64307;52.508;6.090;2023-07-13T01:25:34;12.98;;;1.30;;
75691;SDS011;64307;52.508;6.090;2023-07-13T01:28:00;10.48;;;1.50;;
75691;SDS011;64307;52.508;6.090;2023-07-13T01:30:27;6.15;;;1.10;;
75691;SDS011;64307;52.508;6.090;2023-07-13T01:32:56;9.23;;;1.42;;
75691;SDS011;64307;52.508;6.090;2023-07-13T01:35:22;9.18;;;1.77;;
75691;SDS011;64307;52.508;6.090;2023-07-13T01:37:47;7.43;;;1.30;;
75691;SDS011;64307;52.508;6.090;2023-07-13T01:40:12;9.40;;;1.92;;
75691;SDS011;64307;52.508;6.090;2023-07-13T01:42:38;10.55;;;1.50;;
75691;SDS011;64307;52.508;6.090;2023-07-13T01:45:03;11.85;;;1.52;;
75691;SDS011;64307;52.508;6.090;2023-07-13T01:47:30;9.65;;;1.35;;
75691;SDS011;64307;52.508;6.090;2023-07-13T01:49:56;13.18;;;1.65;;
75691;SDS011;64307;52.508;6.090;2023-07-13T01:52:21;8.88;;;1.73;;
75691;SDS011;64307;52.508;6.090;2023-07-13T01:54:47;10.63;;;1.45;;
75691;SDS011;64307;52.508;6.090;2023-07-13T01:57:12;12.02;;;1.52;;
75691;SDS011;64307;52.508;6.090;2023-07-13T01:59:37;8.07;;;1.50;;
75691;SDS011;64307;52.508;6.090;2023-07-13T02:02:03;7.97;;;1.45;;
75691;SDS011;64307;52.508;6.090;2023-07-13T02:04:28;8.13;;;1.60;;
75691;SDS011;64307;52.508;6.090;2023-07-13T02:06:53;7.50;;;1.90;;
75691;SDS011;64307;52.508;6.090;2023-07-13T02:09:20;11.75;;;1.63;;
75691;SDS011;64307;52.508;6.090;2023-07-13T02:11:46;7.30;;;1.75;;
75691;SDS011;64307;52.508;6.090;2023-07-13T02:14:11;9.98;;;1.20;;
75691;SDS011;64307;52.508;6.090;2023-07-13T02:16:36;5.70;;;1.02;;
75691;SDS011;64307;52.508;6.090;2023-07-13T02:19:02;6.95;;;1.42;;
75691;SDS011;64307;52.508;6.090;2023-07-13T02:21:27;8.18;;;1.42;;
75691;SDS011;64307;52.508;6.090;2023-07-13T02:23:52;11.20;;;1.45;;
75691;SDS011;64307;52.508;6.090;2023-07-13T02:26:18;11.75;;;2.28;;
75691;SDS011;64307;52.508;6.090;2023-07-13T02:28:44;11.82;;;1.67;;
75691;SDS011;64307;52.508;6.090;2023-07-13T02:31:11;7.30;;;1.63;;
75691;SDS011;64307;52.508;6.090;2023-07-13T02:33:38;10.85;;;1.13;;
75691;SDS011;64307;52.508;6.090;2023-07-13T02:36:03;6.72;;;1.55;;
75691;SDS011;64307;52.508;6.090;2023-07-13T02:38:30;8.65;;;1.38;;
75691;SDS011;64307;52.508;6.090;2023-07-13T02:41:05;6.32;;;1.45;;
75691;SDS011;64307;52.508;6.090;2023-07-13T02:43:32;6.68;;;1.85;;
75691;SDS011;64307;52.508;6.090;2023-07-13T02:45:59;10.30;;;1.65;;
75691;SDS011;64307;52.508;6.090;2023-07-13T02:48:29;7.63;;;1.48;;
75691;SDS011;64307;52.508;6.090;2023-07-13T02:50:54;11.63;;;1.75;;
75691;SDS011;64307;52.508;6.090;2023-07-13T02:53:20;9.45;;;1.77;;
75691;SDS011;64307;52.508;6.090;2023-07-13T02:55:45;7.80;;;1.75;;
75691;SDS011;64307;52.508;6.090;2023-07-13T02:58:12;7.13;;;1.75;;
75691;SDS011;64307;52.508;6.090;2023-07-13T03:00:41;10.48;;;1.88;;
75691;SDS011;64307;52.508;6.090;2023-07-13T03:03:07;9.57;;;1.77;;
75691;SDS011;64307;52.508;6.090;2023-07-13T03:05:32;6.70;;;1.40;;
75691;SDS011;64307;52.508;6.090;2023-07-13T03:07:57;9.90;;;1.83;;
75691;SDS011;64307;52.508;6.090;2023-07-13T03:10:23;5.40;;;1.30;;
75691;SDS011;64307;52.508;6.090;2023-07-13T03:12:48;9.25;;;1.58;;
75691;SDS011;64307;52.508;6.090;2023-07-13T03:15:13;7.65;;;1.70;;
75691;SDS011;64307;52.508;6.090;2023-07-13T03:17:38;5.90;;;1.65;;
75691;SDS011;64307;52.508;6.090;2023-07-13T03:20:04;9.32;;;2.03;;
75691;SDS011;64307;52.508;6.090;2023-07-13T03:22:30;7.82;;;1.50;;
75691;SDS011;64307;52.508;6.090;2023-07-13T03:24:56;14.38;;;2.17;;
75691;SDS011;64307;52.508;6.090;2023-07-13T03:27:21;11.82;;;2.08;;
75691;SDS011;64307;52.508;6.090;2023-07-13T03:29:47;8.60;;;1.37;;
75691;SDS011;64307;52.508;6.090;2023-07-13T03:32:12;12.50;;;2.57;;
75691;SDS011;64307;52.508;6.090;2023-07-13T03:34:37;8.17;;;1.97;;
75691;SDS011;64307;52.508;6.090;2023-07-13T03:37:02;7.47;;;1.77;;
75691;SDS011;64307;52.508;6.090;2023-07-13T03:39:28;7.80;;;1.67;;
75691;SDS011;64307;52.508;6.090;2023-07-13T03:41:53;9.32;;;1.50;;
75691;SDS011;64307;52.508;6.090;2023-07-13T03:44:19;12.95;;;2.25;;
75691;SDS011;64307;52.508;6.090;2023-07-13T03:46:44;7.85;;;2.47;;
75691;SDS011;64307;52.508;6.090;2023-07-13T03:49:10;10.05;;;1.40;;
75691;SDS011;64307;52.508;6.090;2023-07-13T03:51:35;9.65;;;1.65;;
75691;SDS011;64307;52.508;6.090;2023-07-13T03:54:00;8.68;;;1.65;;
75691;SDS011;64307;52.508;6.090;2023-07-13T03:56:27;12.88;;;2.05;;
75691;SDS011;64307;52.508;6.090;2023-07-13T03:58:53;10.38;;;1.92;;
75691;SDS011;64307;52.508;6.090;2023-07-13T04:01:19;11.63;;;1.80;;
75691;SDS011;64307;52.508;6.090;2023-07-13T04:03:46;8.15;;;2.13;;
75691;SDS011;64307;52.508;6.090;2023-07-13T04:06:14;9.25;;;2.00;;
75691;SDS011;64307;52.508;6.090;2023-07-13T04:08:46;11.35;;;2.22;;
75691;SDS011;64307;52.508;6.090;2023-07-13T04:11:14;8.73;;;2.30;;
75691;SDS011;64307;52.508;6.090;2023-07-13T04:13:39;8.27;;;1.77;;
75691;SDS011;64307;52.508;6.090;2023-07-13T04:16:05;8.63;;;1.63;;
75691;SDS011;64307;52.508;6.090;2023-07-13T04:18:30;12.45;;;2.17;;
75691;SDS011;64307;52.508;6.090;2023-07-13T04:20:55;9.90;;;1.92;;
75691;SDS011;64307;52.508;6.090;2023-07-13T04:23:21;8.32;;;2.10;;
75691;SDS011;64307;52.508;6.090;2023-07-13T04:25:46;10.70;;;2.15;;
75691;SDS011;64307;52.508;6.090;2023-07-13T04:28:14;12.85;;;2.03;;
75691;SDS011;64307;52.508;6.090;2023-07-13T04:30:40;11.48;;;2.17;;
75691;SDS011;64307;52.508;6.090;2023-07-13T04:33:05;8.80;;;2.40;;
75691;SDS011;64307;52.508;6.090;2023-07-13T04:35:31;10.02;;;1.92;;
75691;SDS011;64307;52.508;6.090;2023-07-13T04:37:56;11.05;;;2.13;;
75691;SDS011;64307;52.508;6.090;2023-07-13T04:40:21;9.45;;;1.98;;
75691;SDS011;64307;52.508;6.090;2023-07-13T04:42:47;8.05;;;1.67;;
75691;SDS011;64307;52.508;6.090;2023-07-13T04:45:13;11.80;;;1.67;;
75691;SDS011;64307;52.508;6.090;2023-07-13T04:47:39;10.18;;;1.75;;
75691;SDS011;64307;52.508;6.090;2023-07-13T04:50:06;9.15;;;1.40;;
75691;SDS011;64307;52.508;6.090;2023-07-13T04:52:33;7.50;;;1.63;;
75691;SDS011;64307;52.508;6.090;2023-07-13T04:54:59;8.75;;;1.70;;
75691;SDS011;64307;52.508;6.090;2023-07-13T04:57:25;9.68;;;1.98;;
75691;SDS011;64307;52.508;6.090;2023-07-13T04:59:50;8.13;;;1.40;;
75691;SDS011;64307;52.508;6.090;2023-07-13T05:02:16;9.15;;;1.60;;
75691;SDS011;64307;52.508;6.090;2023-07-13T05:04:41;8.00;;;1.52;;
75691;SDS011;64307;52.508;6.090;2023-07-13T05:07:06;7.13;;;0.95;;
75691;SDS011;64307;52.508;6.090;2023-07-13T05:09:32;7.53;;;1.50;;
75691;SDS011;64307;52.508;6.090;2023-07-13T05:11:57;5.73;;;1.20;;
75691;SDS011;64307;52.508;6.090;2023-07-13T05:14:23;8.65;;;1.50;;
75691;SDS011;64307;52.508;6.090;2023-07-13T05:16:49;8.15;;;1.80;;
75691;SDS011;64307;52.508;6.090;2023-07-13T05:19:14;8.18;;;1.30;;
75691;SDS011;64307;52.508;6.090;2023-07-13T05:21:39;7.63;;;1.20;;
75691;SDS011;64307;52.508;6.090;2023-07-13T05:24:07;8.93;;;1.52;;
75691;SDS011;64307;52.508;6.090;2023-07-13T05:26:32;6.93;;;1.23;;
75691;SDS011;64307;52.508;6.090;2023-07-13T05:28:57;7.13;;;1.33;;
75691;SDS011;64307;52.508;6.090;2023-07-13T05:31:24;7.78;;;1.40;;
75691;SDS011;64307;52.508;6.090;2023-07-13T05:33:50;8.13;;;1.50;;
75691;SDS011;64307;52.508;6.090;2023-07-13T05:36:15;8.65;;;1.65;;
75691;SDS011;64307;52.508;6.090;2023-07-13T05:38:42;7.80;;;1.35;;
75691;SDS011;64307;52.508;6.090;2023-07-13T05:41:07;8.52;;;2.08;;
75691;SDS011;64307;52.508;6.090;2023-07-13T05:43:33;9.27;;;1.40;;
75691;SDS011;64307;52.508;6.090;2023-07-13T05:45:59;6.47;;;1.30;;
75691;SDS011;64307;52.508;6.090;2023-07-13T05:48:25;9.55;;;1.55;;
75691;SDS011;64307;52.508;6.090;2023-07-13T05:50:51;5.43;;;1.25;;
75691;SDS011;64307;52.508;6.090;2023-07-13T05:53:16;7.38;;;1.42;;
75691;SDS011;64307;52.508;6.090;2023-07-13T05:55:42;5.93;;;1.38;;
75691;SDS011;64307;52.508;6.090;2023-07-13T05:58:08;7.45;;;1.38;;
75691;SDS011;64307;52.508;6.090;2023-07-13T06:00:34;10.68;;;1.70;;
75691;SDS011;64307;52.508;6.090;2023-07-13T06:03:00;7.68;;;1.83;;
75691;SDS011;64307;52.508;6.090;2023-07-13T06:05:25;5.45;;;1.70;;
75691;SDS011;64307;52.508;6.090;2023-07-13T06:07:52;7.63;;;1.40;;
75691;SDS011;64307;52.508;6.090;2023-07-13T06:10:17;8.33;;;1.90;;
75691;SDS011;64307;52.508;6.090;2023-07-13T06:12:43;11.80;;;1.88;;
75691;SDS011;64307;52.508;6.090;2023-07-13T06:15:08;10.63;;;1.60;;
75691;SDS011;64307;52.508;6.090;2023-07-13T06:17:33;9.27;;;1.67;;
75691;SDS011;64307;52.508;6.090;2023-07-13T06:19:59;7.80;;;1.50;;
75691;SDS011;64307;52.508;6.090;2023-07-13T06:22:24;8.35;;;1.67;;
75691;SDS011;64307;52.508;6.090;2023-07-13T06:24:49;10.35;;;2.30;;
75691;SDS011;64307;52.508;6.090;2023-07-13T06:27:14;13.63;;;1.70;;
75691;SDS011;64307;52.508;6.090;2023-07-13T06:29:40;7.80;;;1.33;;
75691;SDS011;64307;52.508;6.090;2023-07-13T06:32:06;10.73;;;1.95;;
75691;SDS011;64307;52.508;6.090;2023-07-13T06:34:32;9.18;;;1.80;;
75691;SDS011;64307;52.508;6.090;2023-07-13T06:36:57;15.13;;;2.23;;
75691;SDS011;64307;52.508;6.090;2023-07-13T06:39:23;10.20;;;2.00;;
75691;SDS011;64307;52.508;6.090;2023-07-13T06:41:48;11.68;;;2.17;;
75691;SDS011;64307;52.508;6.090;2023-07-13T06:44:14;9.67;;;2.63;;
75691;SDS011;64307;52.508;6.090;2023-07-13T06:46:39;9.70;;;1.92;;
75691;SDS011;64307;52.508;6.090;2023-07-13T06:49:04;9.38;;;2.20;;
75691;SDS011;64307;52.508;6.090;2023-07-13T06:51:30;7.95;;;1.83;;
75691;SDS011;64307;52.508;6.090;2023-07-13T06:53:55;11.30;;;2.28;;
75691;SDS011;64307;52.508;6.090;2023-07-13T06:56:21;9.95;;;2.03;;
75691;SDS011;64307;52.508;6.090;2023-07-13T06:58:46;10.85;;;1.90;;
75691;SDS011;64307;52.508;6.090;2023-07-13T07:01:11;7.77;;;1.80;;
75691;SDS011;64307;52.508;6.090;2023-07-13T07:03:38;10.98;;;2.40;;
75691;SDS011;64307;52.508;6.090;2023-07-13T07:06:12;9.80;;;2.27;;
75691;SDS011;64307;52.508;6.090;2023-07-13T07:08:44;10.40;;;2.20;;
75691;SDS011;64307;52.508;6.090;2023-07-13T07:11:12;9.52;;;2.15;;
75691;SDS011;64307;52.508;6.090;2023-07-13T07:13:39;9.35;;;1.77;;
75691;SDS011;64307;52.508;6.090;2023-07-13T07:16:06;11.43;;;2.85;;
75691;SDS011;64307;52.508;6.090;2023-07-13T07:18:32;7.25;;;2.20;;
75691;SDS011;64307;52.508;6.090;2023-07-13T07:20:57;11.13;;;3.05;;
75691;SDS011;64307;52.508;6.090;2023-07-13T07:23:22;9.70;;;2.72;;
75691;SDS011;64307;52.508;6.090;2023-07-13T07:25:48;8.60;;;2.35;;
75691;SDS011;64307;52.508;6.090;2023-07-13T07:28:16;7.07;;;2.28;;
75691;SDS011;64307;52.508;6.090;2023-07-13T07:30:45;11.32;;;2.95;;
75691;SDS011;64307;52.508;6.090;2023-07-13T07:33:11;8.77;;;2.30;;
75691;SDS011;64307;52.508;6.090;2023-07-13T07:35:36;6.85;;;1.98;;
75691;SDS011;64307;52.508;6.090;2023-07-13T07:38:01;13.30;;;2.97;;
75691;SDS011;64307;52.508;6.090;2023-07-13T07:40:27;10.82;;;2.75;;
75691;SDS011;64307;52.508;6.090;2023-07-13T07:42:52;13.07;;;2.55;;
75691;SDS011;64307;52.508;6.090;2023-07-13T07:45:18;8.83;;;2.47;;
75691;SDS011;64307;52.508;6.090;2023-07-13T07:47:43;10.32;;;2.63;;
75691;SDS011;64307;52.508;6.090;2023-07-13T07:50:09;8.32;;;2.33;;
75691;SDS011;64307;52.508;6.090;2023-07-13T07:52:36;9.52;;;2.45;;
75691;SDS011;64307;52.508;6.090;2023-07-13T07:55:03;7.40;;;2.30;;
75691;SDS011;64307;52.508;6.090;2023-07-13T07:57:30;11.02;;;2.55;;
75691;SDS011;64307;52.508;6.090;2023-07-13T07:59:55;8.90;;;2.60;;
75691;SDS011;64307;52.508;6.090;2023-07-13T08:02:22;10.07;;;2.47;;
75691;SDS011;64307;52.508;6.090;2023-07-13T08:04:49;10.52;;;3.00;;
75691;SDS011;64307;52.508;6.090;2023-07-13T08:07:14;8.97;;;2.33;;
75691;SDS011;64307;52.508;6.090;2023-07-13T08:09:40;7.88;;;2.58;;
75691;SDS011;64307;52.508;6.090;2023-07-13T08:12:05;11.17;;;2.83;;
75691;SDS011;64307;52.508;6.090;2023-07-13T08:14:30;11.15;;;2.63;;
75691;SDS011;64307;52.508;6.090;2023-07-13T08:16:56;7.47;;;2.23;;
75691;SDS011;64307;52.508;6.090;2023-07-13T08:19:21;8.10;;;2.00;;
75691;SDS011;64307;52.508;6.090;2023-07-13T08:21:46;12.48;;;2.65;;
75691;SDS011;64307;52.508;6.090;2023-07-13T08:24:13;7.32;;;2.10;;
75691;SDS011;64307;52.508;6.090;2023-07-13T08:26:39;9.15;;;2.50;;
75691;SDS011;64307;52.508;6.090;2023-07-13T08:29:04;7.95;;;2.50;;
75691;SDS011;64307;52.508;6.090;2023-07-13T08:31:30;8.75;;;2.75;;
75691;SDS011;64307;52.508;6.090;2023-07-13T08:33:55;11.40;;;3.53;;
75691;SDS011;64307;52.508;6.090;2023-07-13T08:36:20;12.65;;;3.40;;
75691;SDS011;64307;52.508;6.090;2023-07-13T08:38:45;11.73;;;3.20;;
75691;SDS011;64307;52.508;6.090;2023-07-13T08:41:12;9.43;;;3.33;;
75691;SDS011;64307;52.508;6.090;2023-07-13T08:43:40;8.73;;;3.65;;
75691;SDS011;64307;52.508;6.090;2023-07-13T08:49:22;11.10;;;3.63;;
75691;SDS011;64307;52.508;6.090;2023-07-13T08:51:53;7.63;;;3.38;;
75691;SDS011;64307;52.508;6.090;2023-07-13T08:54:35;9.63;;;3.72;;
75691;SDS011;64307;52.508;6.090;2023-07-13T08:57:20;10.63;;;4.20;;
75691;SDS011;64307;52.508;6.090;2023-07-13T08:59:49;12.60;;;3.22;;
75691;SDS011;64307;52.508;6.090;2023-07-13T09:05:11;6.90;;;2.50;;
75691;SDS011;64307;52.508;6.090;2023-07-13T09:10:29;7.82;;;2.67;;
75691;SDS011;64307;52.508;6.090;2023-07-13T09:13:05;10.00;;;2.58;;
75691;SDS011;64307;52.508;6.090;2023-07-13T09:15:40;6.60;;;2.28;;
75691;SDS011;64307;52.508;6.090;2023-07-13T09:20:44;7.63;;;2.10;;
75691;SDS011;64307;52.508;6.090;2023-07-13T09:23:17;5.97;;;1.90;;
75691;SDS011;64307;52.508;6.090;2023-07-13T09:25:47;7.75;;;2.15;;
75691;SDS011;64307;52.508;6.090;2023-07-13T09:28:19;7.28;;;2.63;;
75691;SDS011;64307;52.508;6.090;2023-07-13T09:33:10;4.77;;;2.03;;
75691;SDS011;64307;52.508;6.090;2023-07-13T09:35:36;5.95;;;2.28;;
75691;SDS011;64307;52.508;6.090;2023-07-13T09:38:11;9.43;;;2.13;;
75691;SDS011;64307;52.508;6.090;2023-07-13T09:44:00;7.05;;;2.22;;
75691;SDS011;64307;52.508;6.090;2023-07-13T09:46:26;8.93;;;2.53;;
75691;SDS011;64307;52.508;6.090;2023-07-13T09:48:52;5.93;;;2.13;;
75691;SDS011;64307;52.508;6.090;2023-07-13T09:51:17;5.95;;;2.13;;
75691;SDS011;64307;52.508;6.090;2023-07-13T09:53:43;7.68;;;2.20;;
75691;SDS011;64307;52.508;6.090;2023-07-13T09:56:22;8.80;;;2.05;;
75691;SDS011;64307;52.508;6.090;2023-07-13T09:58:49;6.15;;;1.90;;
75691;SDS011;64307;52.508;6.090;2023-07-13T10:01:15;8.13;;;2.00;;
75691;SDS011;64307;52.508;6.090;2023-07-13T10:03:51;7.13;;;2.00;;
75691;SDS011;64307;52.508;6.090;2023-07-13T10:06:20;7.93;;;2.80;;
75691;SDS011;64307;52.508;6.090;2023-07-13T10:08:47;10.38;;;3.30;;
75691;SDS011;64307;52.508;6.090;2023-07-13T10:11:20;9.27;;;2.45;;
75691;SDS011;64307;52.508;6.090;2023-07-13T10:13:51;8.23;;;2.35;;
75691;SDS011;64307;52.508;6.090;2023-07-13T10:16:20;4.55;;;1.83;;
75691;SDS011;64307;52.508;6.090;2023-07-13T10:18:50;5.75;;;1.27;;
75691;SDS011;64307;52.508;6.090;2023-07-13T10:21:19;5.20;;;1.65;;
75691;SDS011;64307;52.508;6.090;2023-07-13T10:23:50;6.47;;;2.35;;
75691;SDS011;64307;52.508;6.090;2023-07-13T10:26:21;7.93;;;1.67;;
75691;SDS011;64307;52.508;6.090;2023-07-13T10:28:51;8.80;;;2.20;;
75691;SDS011;64307;52.508;6.090;2023-07-13T10:31:21;6.40;;;2.42;;
75691;SDS011;64307;52.508;6.090;2023-07-13T10:33:47;6.68;;;2.33;;
75691;SDS011;64307;52.508;6.090;2023-07-13T10:36:27;8.02;;;2.42;;
75691;SDS011;64307;52.508;6.090;2023-07-13T10:38:59;6.95;;;2.75;;
75691;SDS011;64307;52.508;6.090;2023-07-13T10:41:27;7.05;;;2.55;;
75691;SDS011;64307;52.508;6.090;2023-07-13T10:43:56;7.43;;;2.75;;
75691;SDS011;64307;52.508;6.090;2023-07-13T10:46:24;6.25;;;2.40;;
75691;SDS011;64307;52.508;6.090;2023-07-13T10:48:54;6.22;;;2.65;;
75691;SDS011;64307;52.508;6.090;2023-07-13T10:51:24;5.57;;;2.13;;
75691;SDS011;64307;52.508;6.090;2023-07-13T11:02:40;5.15;;;1.92;;
75691;SDS011;64307;52.508;6.090;2023-07-13T11:05:14;4.25;;;2.35;;
75691;SDS011;64307;52.508;6.090;2023-07-13T11:07:51;6.05;;;2.83;;
75691;SDS011;64307;52.508;6.090;2023-07-13T11:13:35;8.02;;;2.22;;
75691;SDS011;64307;52.508;6.090;2023-07-13T11:16:01;5.68;;;2.30;;
75691;SDS011;64307;52.508;6.090;2023-07-13T11:18:38;6.32;;;2.22;;
75691;SDS011;64307;52.508;6.090;2023-07-13T11:24:21;8.20;;;2.20;;
75691;SDS011;64307;52.508;6.090;2023-07-13T11:31:40;8.10;;;2.63;;
75691;SDS011;64307;52.508;6.090;2023-07-13T11:34:12;6.60;;;2.13;;
75691;SDS011;64307;52.508;6.090;2023-07-13T11:36:42;6.85;;;2.17;;
75691;SDS011;64307;52.508;6.090;2023-07-13T11:39:19;8.25;;;2.33;;
75691;SDS011;64307;52.508;6.090;2023-07-13T11:41:53;4.32;;;1.98;;
75691;SDS011;64307;52.508;6.090;2023-07-13T11:44:22;5.80;;;2.35;;
75691;SDS011;64307;52.508;6.090;2023-07-13T11:46:52;8.50;;;2.25;;
75691;SDS011;64307;52.508;6.090;2023-07-13T11:49:20;7.53;;;2.42;;
75691;SDS011;64307;52.508;6.090;2023-07-13T11:51:49;7.00;;;2.15;;
75691;SDS011;64307;52.508;6.090;2023-07-13T11:56:55;4.93;;;2.17;;
75691;SDS011;64307;52.508;6.090;2023-07-13T11:59:25;8.00;;;2.47;;
75691;SDS011;64307;52.508;6.090;2023-07-13T12:01:51;7.75;;;2.08;;
75691;SDS011;64307;52.508;6.090;2023-07-13T12:04:23;4.63;;;1.70;;
75691;SDS011;64307;52.508;6.090;2023-07-13T12:06:55;5.97;;;1.75;;
75691;SDS011;64307;52.508;6.090;2023-07-13T12:09:21;6.97;;;1.63;;
75691;SDS011;64307;52.508;6.090;2023-07-13T12:11:50;6.80;;;1.08;;
75691;SDS011;64307;52.508;6.090;2023-07-13T12:14:16;7.75;;;1.55;;
75691;SDS011;64307;52.508;6.090;2023-07-13T12:16:44;5.88;;;1.25;;
75691;SDS011;64307;52.508;6.090;2023-07-13T12:19:21;6.55;;;1.30;;
75691;SDS011;64307;52.508;6.090;2023-07-13T12:21:48;4.30;;;1.13;;
75691;SDS011;64307;52.508;6.090;2023-07-13T12:24:15;4.15;;;1.35;;
75691;SDS011;64307;52.508;6.090;2023-07-13T12:26:42;5.20;;;1.23;;
75691;SDS011;64307;52.508;6.090;2023-07-13T12:29:07;6.93;;;1.35;;
75691;SDS011;64307;52.508;6.090;2023-07-13T12:31:34;7.45;;;1.10;;
75691;SDS011;64307;52.508;6.090;2023-07-13T12:34:11;7.10;;;1.33;;
75691;SDS011;64307;52.508;6.090;2023-07-13T12:37:00;3.53;;;1.40;;
75691;SDS011;64307;52.508;6.090;2023-07-13T12:39:32;5.63;;;1.10;;
75691;SDS011;64307;52.508;6.090;2023-07-13T12:44:46;3.42;;;1.00;;
75691;SDS011;64307;52.508;6.090;2023-07-13T12:47:12;4.68;;;0.98;;
75691;SDS011;64307;52.508;6.090;2023-07-13T12:49:41;8.10;;;1.35;;
75691;SDS011;64307;52.508;6.090;2023-07-13T12:52:16;4.03;;;0.90;;
75691;SDS011;64307;52.508;6.090;2023-07-13T12:55:05;4.05;;;0.98;;
75691;SDS011;64307;52.508;6.090;2023-07-13T12:58:03;2.70;;;1.05;;
75691;SDS011;64307;52.508;6.090;2023-07-13T13:00:29;3.42;;;0.90;;
75691;SDS011;64307;52.508;6.090;2023-07-13T13:03:21;5.38;;;1.40;;
75691;SDS011;64307;52.508;6.090;2023-07-13T13:05:56;5.32;;;1.15;;
75691;SDS011;64307;52.508;6.090;2023-07-13T13:08:33;4.28;;;0.98;;
75691;SDS011;64307;52.508;6.090;2023-07-13T13:11:00;4.43;;;1.00;;
75691;SDS011;64307;52.508;6.090;2023-07-13T13:13:26;2.80;;;0.88;;
75691;SDS011;64307;52.508;6.090;2023-07-13T13:15:52;4.22;;;1.05;;
75691;SDS011;64307;52.508;6.090;2023-07-13T13:18:19;4.63;;;0.82;;
75691;SDS011;64307;52.508;6.090;2023-07-13T13:20:46;5.28;;;0.90;;
75691;SDS011;64307;52.508;6.090;2023-07-13T13:23:13;5.72;;;1.02;;
75691;SDS011;64307;52.508;6.090;2023-07-13T13:25:42;3.95;;;0.95;;
75691;SDS011;64307;52.508;6.090;2023-07-13T13:28:12;4.93;;;1.02;;
75691;SDS011;64307;52.508;6.090;2023-07-13T13:30:43;3.85;;;1.00;;
75691;SDS011;64307;52.508;6.090;2023-07-13T13:33:13;5.95;;;1.05;;
75691;SDS011;64307;52.508;6.090;2023-07-13T13:35:40;5.80;;;0.70;;
75691;SDS011;64307;52.508;6.090;2023-07-13T13:38:20;4.28;;;1.15;;
75691;SDS011;64307;52.508;6.090;2023-07-13T13:40:50;7.20;;;1.23;;
75691;SDS011;64307;52.508;6.090;2023-07-13T13:43:16;4.47;;;0.93;;
75691;SDS011;64307;52.508;6.090;2023-07-13T13:45:56;6.78;;;1.27;;
75691;SDS011;64307;52.508;6.090;2023-07-13T13:48:34;7.32;;;1.10;;
75691;SDS011;64307;52.508;6.090;2023-07-13T13:51:01;4.50;;;1.10;;
75691;SDS011;64307;52.508;6.090;2023-07-13T13:53:38;6.15;;;1.13;;
75691;SDS011;64307;52.508;6.090;2023-07-13T13:56:04;3.70;;;0.90;;
75691;SDS011;64307;52.508;6.090;2023-07-13T13:58:31;5.55;;;1.10;;
75691;SDS011;64307;52.508;6.090;2023-07-13T14:00:56;4.75;;;1.05;;
75691;SDS011;64307;52.508;6.090;2023-07-13T14:03:23;4.32;;;0.63;;
75691;SDS011;64307;52.508;6.090;2023-07-13T14:05:49;9.05;;;1.35;;
75691;SDS011;64307;52.508;6.090;2023-07-13T14:08:15;7.97;;;1.10;;
75691;SDS011;64307;52.508;6.090;2023-07-13T14:10:43;5.63;;;1.05;;
75691;SDS011;64307;52.508;6.090;2023-07-13T14:13:15;3.85;;;0.98;;
75691;SDS011;64307;52.508;6.090;2023-07-13T14:15:43;4.13;;;0.95;;
75691;SDS011;64307;52.508;6.090;2023-07-13T14:18:09;5.72;;;0.90;;
75691;SDS011;64307;52.508;6.090;2023-07-13T14:20:35;5.70;;;0.98;;
75691;SDS011;64307;52.508;6.090;2023-07-13T14:23:00;4.82;;;1.20;;
75691;SDS011;64307;52.508;6.090;2023-07-13T14:25:26;3.73;;;0.90;;
75691;SDS011;64307;52.508;6.090;2023-07-13T14:27:58;3.65;;;1.40;;
75691;SDS011;64307;52.508;6.090;2023-07-13T14:30:26;7.40;;;1.08;;
75691;SDS011;64307;52.508;6.090;2023-07-13T14:32:51;4.97;;;1.20;;
75691;SDS011;64307;52.508;6.090;2023-07-13T14:35:18;7.35;;;1.23;;
75691;SDS011;64307;52.508;6.090;2023-07-13T14:37:45;5.45;;;1.20;;
75691;SDS011;64307;52.508;6.090;2023-07-13T14:42:46;5.15;;;1.83;;
75691;SDS011;64307;52.508;6.090;2023-07-13T14:45:13;4.15;;;1.08;;
75691;SDS011;64307;52.508;6.090;2023-07-13T14:47:40;3.13;;;1.02;;
75691;SDS011;64307;52.508;6.090;2023-07-13T14:50:11;5.97;;;1.13;;
75691;SDS011;64307;52.508;6.090;2023-07-13T14:52:38;4.50;;;0.90;;
75691;SDS011;64307;52.508;6.090;2023-07-13T14:55:07;9.82;;;2.30;;
75691;SDS011;64307;52.508;6.090;2023-07-13T14:57:35;3.85;;;1.40;;
75691;SDS011;64307;52.508;6.090;2023-07-13T15:00:00;6.75;;;1.05;;
75691;SDS011;64307;52.508;6.090;2023-07-13T15:02:27;6.63;;;0.90;;
75691;SDS011;64307;52.508;6.090;2023-07-13T15:04:56;5.82;;;1.27;;
75691;SDS011;64307;52.508;6.090;2023-07-13T15:07:22;4.60;;;1.23;;
75691;SDS011;64307;52.508;6.090;2023-07-13T15:09:48;7.40;;;1.38;;
75691;SDS011;64307;52.508;6.090;2023-07-13T15:12:13;5.35;;;1.10;;
75691;SDS011;64307;52.508;6.090;2023-07-13T15:14:39;3.55;;;1.27;;
75691;SDS011;64307;52.508;6.090;2023-07-13T15:17:04;4.68;;;1.30;;
75691;SDS011;64307;52.508;6.090;2023-07-13T15:19:30;5.68;;;1.05;;
75691;SDS011;64307;52.508;6.090;2023-07-13T15:21:56;4.97;;;0.95;;
75691;SDS011;64307;52.508;6.090;2023-07-13T15:24:22;4.70;;;1.05;;
75691;SDS011;64307;52.508;6.090;2023-07-13T15:26:48;3.67;;;1.20;;
75691;SDS011;64307;52.508;6.090;2023-07-13T15:29:14;6.30;;;1.50;;
75691;SDS011;64307;52.508;6.090;2023-07-13T15:31:40;3.65;;;1.40;;
75691;SDS011;64307;52.508;6.090;2023-07-13T15:34:13;4.05;;;1.13;;
75691;SDS011;64307;52.508;6.090;2023-07-13T15:36:42;6.25;;;1.27;;
75691;SDS011;64307;52.508;6.090;2023-07-13T15:39:08;5.28;;;1.20;;